createdAt,value
2018-09-06T00:00:30.199Z,12.94
2018-09-06T00:01:35.544Z,12.93
2018-09-06T00:02:41.387Z,12.90
2018-09-06T00:03:48.210Z,12.90
2018-09-06T00:04:54.120Z,12.88
2018-09-06T00:06:00.915Z,12.87
2018-09-06T00:07:07.271Z,12.86
2018-09-06T00:08:13.580Z,12.79
2018-09-06T00:09:19.919Z,12.70
2018-09-06T00:10:26.244Z,12.71
2018-09-06T00:11:32.592Z,12.71
2018-09-06T00:12:38.926Z,12.72
2018-09-06T00:13:45.265Z,12.72
2018-09-06T00:14:51.596Z,12.72
2018-09-06T00:15:57.932Z,12.72
2018-09-06T00:17:04.260Z,12.78
2018-09-06T00:18:10.107Z,12.80
2018-09-06T00:19:16.943Z,12.77
2018-09-06T00:20:23.283Z,12.79
2018-09-06T00:21:29.613Z,12.79
2018-09-06T00:22:35.937Z,12.78
2018-09-06T00:23:41.784Z,12.77
2018-09-06T00:24:48.613Z,12.73
2018-09-06T00:25:54.958Z,12.67
2018-09-06T00:27:01.296Z,12.60
2018-09-06T00:28:07.626Z,12.52
2018-09-06T00:29:13.441Z,12.48
2018-09-06T00:30:20.286Z,12.50
2018-09-06T00:31:26.620Z,12.54
2018-09-06T00:32:32.929Z,12.58
2018-09-06T00:33:38.772Z,12.62
2018-09-06T00:34:45.610Z,12.63
2018-09-06T00:35:51.930Z,12.60
2018-09-06T00:36:58.264Z,12.58
2018-09-06T00:38:04.585Z,12.60
2018-09-06T00:39:10.907Z,12.65
2018-09-06T00:40:17.265Z,12.66
2018-09-06T00:41:23.607Z,12.64
2018-09-06T00:42:29.893Z,12.57
2018-09-06T00:43:36.229Z,12.51
2018-09-06T00:44:42.551Z,12.44
2018-09-06T00:45:48.885Z,12.39
2018-09-06T00:46:55.227Z,12.32
2018-09-06T00:48:01.543Z,12.31
2018-09-06T00:49:07.856Z,12.29
2018-09-06T00:50:14.188Z,12.34
2018-09-06T00:51:20.048Z,12.39
2018-09-06T00:52:26.856Z,12.40
2018-09-06T00:53:33.279Z,12.36
2018-09-06T00:54:40.508Z,12.36
2018-09-06T00:55:45.860Z,12.40
2018-09-06T00:56:52.180Z,12.48
2018-09-06T00:57:58.003Z,12.54
2018-09-06T00:59:04.825Z,12.55
2018-09-06T01:00:11.283Z,12.50
2018-09-06T01:01:17.491Z,12.44
2018-09-06T01:02:23.816Z,12.42
2018-09-06T01:03:30.140Z,12.41
2018-09-06T01:04:36.463Z,12.40
2018-09-06T01:05:42.803Z,12.43
2018-09-06T01:06:49.123Z,12.40
2018-09-06T01:07:55.439Z,12.36
2018-09-06T01:09:01.260Z,12.35
2018-09-06T01:10:08.074Z,12.32
2018-09-06T01:11:14.400Z,12.33
2018-09-06T01:12:20.733Z,12.36
2018-09-06T01:13:27.063Z,12.32
2018-09-06T01:14:33.383Z,12.27
2018-09-06T01:15:39.699Z,12.22
2018-09-06T01:16:46.035Z,12.23
2018-09-06T01:17:52.338Z,12.24
2018-09-06T01:18:58.659Z,12.23
2018-09-06T01:20:04.976Z,12.20
2018-09-06T01:21:11.294Z,12.19
2018-09-06T01:22:17.655Z,12.18
2018-09-06T01:23:23.942Z,12.18
2018-09-06T01:24:30.245Z,12.16
2018-09-06T01:25:36.580Z,12.19
2018-09-06T01:26:42.900Z,12.16
2018-09-06T01:27:49.278Z,12.17
2018-09-06T01:28:55.535Z,12.19
2018-09-06T01:30:01.360Z,12.19
2018-09-06T01:31:07.669Z,12.19
2018-09-06T01:32:14.497Z,12.20
2018-09-06T01:33:20.803Z,12.19
2018-09-06T01:34:26.627Z,12.21
2018-09-06T01:35:33.449Z,12.18
2018-09-06T01:36:39.745Z,12.07
2018-09-06T01:37:46.082Z,11.99
2018-09-06T01:38:52.389Z,11.94
2018-09-06T01:39:58.700Z,11.98
2018-09-06T01:41:05.031Z,12.02
2018-09-06T01:42:11.355Z,12.04
2018-09-06T01:43:17.268Z,12.06
2018-09-06T01:44:23.989Z,12.04
2018-09-06T01:45:30.303Z,12.05
2018-09-06T01:46:36.619Z,12.14
2018-09-06T01:47:42.952Z,12.24
2018-09-06T01:48:49.256Z,12.26
2018-09-06T01:49:55.573Z,12.24
2018-09-06T01:51:01.883Z,12.23
2018-09-06T01:52:08.219Z,12.17
2018-09-06T01:53:14.528Z,12.11
2018-09-06T01:54:20.838Z,12.17
2018-09-06T01:55:27.153Z,12.23
2018-09-06T01:56:33.473Z,12.23
2018-09-06T01:57:39.791Z,12.21
2018-09-06T01:58:46.090Z,12.19
2018-09-06T01:59:52.412Z,12.10
2018-09-06T02:00:58.728Z,12.02
2018-09-06T02:02:05.045Z,11.94
2018-09-06T02:03:11.371Z,11.92
2018-09-06T02:04:17.677Z,11.94
2018-09-06T02:05:23.980Z,12.01
2018-09-06T02:06:30.308Z,12.06
2018-09-06T02:07:36.630Z,12.08
2018-09-06T02:08:42.941Z,12.11
2018-09-06T02:09:49.265Z,12.11
2018-09-06T02:10:55.560Z,12.13
2018-09-06T02:12:01.385Z,12.14
2018-09-06T02:13:08.199Z,12.12
2018-09-06T02:14:14.513Z,12.16
2018-09-06T02:15:20.829Z,12.17
2018-09-06T02:16:27.135Z,12.15
2018-09-06T02:17:33.462Z,12.15
2018-09-06T02:18:40.760Z,12.20
2018-09-06T02:19:46.090Z,12.13
2018-09-06T02:20:52.403Z,12.13
2018-09-06T02:21:58.710Z,12.16
2018-09-06T02:23:05.035Z,12.18
2018-09-06T02:24:11.334Z,12.26
2018-09-06T02:25:17.648Z,12.35
2018-09-06T02:26:23.981Z,12.39
2018-09-06T02:27:30.287Z,12.37
2018-09-06T02:28:37.587Z,12.31
2018-09-06T02:29:42.925Z,12.22
2018-09-06T02:30:49.271Z,12.15
2018-09-06T02:31:55.533Z,12.13
2018-09-06T02:33:01.858Z,12.06
2018-09-06T02:34:07.670Z,11.99
2018-09-06T02:35:13.974Z,11.97
2018-09-06T02:36:21.777Z,12.01
2018-09-06T02:37:27.115Z,12.06
2018-09-06T02:38:33.413Z,12.09
2018-09-06T02:39:39.724Z,12.18
2018-09-06T02:40:46.037Z,12.27
2018-09-06T02:41:52.350Z,12.37
2018-09-06T02:42:58.656Z,12.49
2018-09-06T02:44:04.979Z,12.54
2018-09-06T02:45:10.790Z,12.57
2018-09-06T02:46:17.610Z,12.48
2018-09-06T02:47:23.920Z,12.39
2018-09-06T02:48:30.241Z,12.29
2018-09-06T02:49:36.545Z,12.20
2018-09-06T02:50:42.852Z,12.13
2018-09-06T02:51:49.266Z,12.08
2018-09-06T02:52:55.494Z,12.05
2018-09-06T02:54:01.851Z,12.04
2018-09-06T02:55:08.116Z,12.00
2018-09-06T02:56:14.418Z,12.01
2018-09-06T02:57:20.737Z,12.02
2018-09-06T02:58:27.055Z,12.04
2018-09-06T02:59:33.371Z,12.06
2018-09-06T03:00:39.683Z,12.09
2018-09-06T03:01:45.981Z,12.09
2018-09-06T03:02:52.303Z,12.06
2018-09-06T03:03:58.619Z,12.03
2018-09-06T03:05:04.932Z,12.04
2018-09-06T03:06:11.267Z,11.98
2018-09-06T03:07:17.554Z,11.90
2018-09-06T03:08:23.876Z,11.88
2018-09-06T03:09:30.166Z,11.85
2018-09-06T03:10:36.492Z,11.82
2018-09-06T03:11:42.799Z,11.78
2018-09-06T03:12:49.110Z,11.71
2018-09-06T03:13:55.430Z,11.65
2018-09-06T03:15:01.750Z,11.62
2018-09-06T03:16:07.545Z,11.62
2018-09-06T03:17:14.349Z,11.61
2018-09-06T03:18:20.686Z,11.63
2018-09-06T03:19:26.959Z,11.64
2018-09-06T03:20:33.287Z,11.65
2018-09-06T03:21:39.590Z,11.61
2018-09-06T03:22:45.890Z,11.57
2018-09-06T03:23:52.253Z,11.55
2018-09-06T03:24:58.520Z,11.59
2018-09-06T03:26:04.825Z,11.61
2018-09-06T03:27:11.136Z,11.60
2018-09-06T03:28:17.446Z,11.57
2018-09-06T03:29:23.762Z,11.51
2018-09-06T03:30:30.055Z,11.51
2018-09-06T03:31:35.858Z,11.46
2018-09-06T03:32:42.657Z,11.42
2018-09-06T03:33:48.977Z,11.40
2018-09-06T03:34:55.264Z,11.36
2018-09-06T03:36:01.615Z,11.36
2018-09-06T03:37:07.873Z,11.38
2018-09-06T03:38:14.197Z,11.39
2018-09-06T03:39:20.488Z,11.36
2018-09-06T03:40:26.807Z,11.39
2018-09-06T03:41:33.096Z,11.45
2018-09-06T03:42:39.396Z,11.53
2018-09-06T03:43:45.714Z,11.57
2018-09-06T03:44:52.011Z,11.63
2018-09-06T03:45:58.315Z,11.62
2018-09-06T03:47:04.614Z,11.54
2018-09-06T03:48:10.436Z,11.49
2018-09-06T03:49:17.230Z,11.46
2018-09-06T03:50:23.518Z,11.41
2018-09-06T03:51:30.128Z,11.38
2018-09-06T03:52:36.135Z,11.36
2018-09-06T03:53:42.446Z,11.34
2018-09-06T03:54:48.739Z,11.31
2018-09-06T03:55:55.047Z,11.26
2018-09-06T03:57:00.850Z,11.22
2018-09-06T03:58:07.153Z,11.20
2018-09-06T03:59:13.955Z,11.22
2018-09-06T04:00:21.271Z,11.27
2018-09-06T04:01:26.556Z,11.29
2018-09-06T04:02:32.861Z,11.26
2018-09-06T04:03:39.151Z,11.26
2018-09-06T04:04:45.466Z,11.29
2018-09-06T04:05:51.761Z,11.29
2018-09-06T04:06:57.550Z,11.33
2018-09-06T04:08:04.347Z,11.33
2018-09-06T04:09:10.150Z,11.32
2018-09-06T04:10:16.939Z,11.28
2018-09-06T04:11:23.275Z,11.23
2018-09-06T04:12:29.040Z,11.19
2018-09-06T04:13:35.354Z,11.14
2018-09-06T04:14:42.160Z,11.14
2018-09-06T04:15:48.432Z,11.24
2018-09-06T04:16:54.726Z,11.29
2018-09-06T04:18:01.059Z,11.26
2018-09-06T04:19:07.336Z,11.23
2018-09-06T04:20:13.616Z,11.27
2018-09-06T04:21:19.918Z,11.27
2018-09-06T04:22:25.706Z,11.29
2018-09-06T04:23:32.509Z,11.28
2018-09-06T04:24:38.787Z,11.27
2018-09-06T04:25:45.081Z,11.34
2018-09-06T04:26:51.379Z,11.39
2018-09-06T04:27:57.665Z,11.38
2018-09-06T04:29:03.992Z,11.35
2018-09-06T04:30:10.263Z,11.39
2018-09-06T04:31:16.574Z,11.39
2018-09-06T04:32:22.861Z,11.41
2018-09-06T04:33:29.150Z,11.39
2018-09-06T04:34:34.959Z,11.38
2018-09-06T04:35:41.751Z,11.39
2018-09-06T04:36:48.067Z,11.38
2018-09-06T04:37:54.345Z,11.43
2018-09-06T04:39:00.663Z,11.47
2018-09-06T04:40:06.952Z,11.49
2018-09-06T04:41:13.271Z,11.53
2018-09-06T04:42:19.537Z,11.59
2018-09-06T04:43:25.335Z,11.61
2018-09-06T04:44:31.647Z,11.63
2018-09-06T04:45:38.424Z,11.62
2018-09-06T04:46:44.747Z,11.60
2018-09-06T04:47:51.036Z,11.59
2018-09-06T04:48:56.841Z,11.57
2018-09-06T04:50:03.635Z,11.57
2018-09-06T04:51:09.944Z,11.57
2018-09-06T04:52:15.746Z,11.56
2018-09-06T04:53:22.538Z,11.57
2018-09-06T04:54:28.840Z,11.60
2018-09-06T04:55:35.131Z,11.63
2018-09-06T04:56:41.435Z,11.71
2018-09-06T04:57:47.728Z,11.74
2018-09-06T04:58:54.058Z,11.78
2018-09-06T04:59:59.836Z,11.81
2018-09-06T05:01:06.639Z,11.78
2018-09-06T05:02:12.974Z,11.74
2018-09-06T05:03:19.267Z,11.73
2018-09-06T05:04:25.640Z,11.76
2018-09-06T05:05:31.869Z,11.79
2018-09-06T05:06:37.777Z,11.83
2018-09-06T05:07:44.465Z,11.87
2018-09-06T05:08:50.265Z,11.93
2018-09-06T05:09:57.074Z,11.99
2018-09-06T05:11:03.385Z,12.03
2018-09-06T05:12:09.701Z,12.03
2018-09-06T05:13:16.008Z,12.00
2018-09-06T05:14:23.336Z,11.99
2018-09-06T05:15:28.147Z,11.97
2018-09-06T05:16:34.959Z,12.00
2018-09-06T05:17:40.766Z,12.02
2018-09-06T05:18:47.569Z,12.05
2018-09-06T05:19:53.889Z,12.08
2018-09-06T05:20:59.709Z,12.10
2018-09-06T05:22:06.647Z,12.16
2018-09-06T05:23:12.344Z,12.19
2018-09-06T05:24:18.651Z,12.22
2018-09-06T05:25:24.976Z,12.25
2018-09-06T05:26:31.292Z,12.28
2018-09-06T05:27:38.103Z,12.28
2018-09-06T05:28:44.436Z,12.31
2018-09-06T05:29:50.758Z,12.35
2018-09-06T05:30:57.076Z,12.40
2018-09-06T05:32:03.406Z,12.43
2018-09-06T05:33:09.731Z,12.46
2018-09-06T05:34:16.047Z,12.49
2018-09-06T05:35:21.890Z,12.54
2018-09-06T05:36:28.753Z,12.58
2018-09-06T05:37:35.038Z,12.61
2018-09-06T05:38:41.367Z,12.66
2018-09-06T05:39:47.701Z,12.69
2018-09-06T05:40:54.038Z,12.74
2018-09-06T05:42:00.366Z,12.79
2018-09-06T05:43:06.686Z,12.87
2018-09-06T05:44:13.042Z,12.93
2018-09-06T05:45:19.378Z,12.95
2018-09-06T05:46:25.715Z,13.03
2018-09-06T05:47:32.124Z,13.06
2018-09-06T05:48:38.382Z,13.07
2018-09-06T05:49:44.248Z,13.11
2018-09-06T05:50:51.067Z,13.14
2018-09-06T05:51:57.440Z,13.20
2018-09-06T05:53:03.771Z,13.25
2018-09-06T05:54:10.103Z,13.29
2018-09-06T05:55:15.972Z,13.34
2018-09-06T05:56:22.328Z,13.38
2018-09-06T05:57:29.270Z,13.40
2018-09-06T05:58:35.522Z,13.42
2018-09-06T05:59:41.916Z,13.49
2018-09-06T06:00:47.749Z,13.57
2018-09-06T06:01:54.601Z,13.63
2018-09-06T06:03:00.968Z,13.71
2018-09-06T06:04:07.335Z,13.78
2018-09-06T06:05:13.734Z,13.88
2018-09-06T06:06:20.065Z,13.96
2018-09-06T06:07:26.443Z,14.05
2018-09-06T06:08:32.818Z,14.13
2018-09-06T06:09:39.274Z,14.22
2018-09-06T06:10:45.570Z,14.30
2018-09-06T06:11:52.013Z,14.36
2018-09-06T06:12:58.317Z,14.44
2018-09-06T06:14:04.722Z,14.54
2018-09-06T06:15:11.120Z,14.66
2018-09-06T06:16:17.474Z,14.79
2018-09-06T06:17:23.882Z,14.90
2018-09-06T06:18:30.273Z,14.99
2018-09-06T06:19:37.292Z,15.07
2018-09-06T06:20:43.061Z,15.16
2018-09-06T06:21:49.462Z,15.26
2018-09-06T06:22:55.868Z,15.38
2018-09-06T06:24:02.274Z,15.49
2018-09-06T06:25:08.701Z,15.62
2018-09-06T06:26:15.086Z,15.74
2018-09-06T06:27:21.015Z,15.86
2018-09-06T06:28:27.930Z,15.98
2018-09-06T06:29:34.340Z,16.09
2018-09-06T06:30:41.785Z,16.18
2018-09-06T06:31:47.311Z,16.24
2018-09-06T06:32:53.132Z,16.32
2018-09-06T06:34:00.060Z,16.37
2018-09-06T06:35:06.499Z,16.42
2018-09-06T06:36:12.914Z,16.46
2018-09-06T06:37:18.860Z,16.51
2018-09-06T06:38:25.796Z,16.58
2018-09-06T06:39:32.233Z,16.65
2018-09-06T06:40:38.705Z,16.70
2018-09-06T06:41:45.110Z,16.75
2018-09-06T06:42:51.557Z,16.86
2018-09-06T06:43:57.509Z,16.99
2018-09-06T06:45:04.473Z,17.11
2018-09-06T06:46:10.909Z,17.20
2018-09-06T06:47:17.385Z,17.31
2018-09-06T06:48:23.844Z,17.43
2018-09-06T06:49:30.303Z,17.53
2018-09-06T06:50:37.758Z,17.67
2018-09-06T06:51:43.582Z,17.80
2018-09-06T06:52:49.702Z,17.88
2018-09-06T06:53:56.169Z,17.95
2018-09-06T06:55:02.671Z,18.02
2018-09-06T06:56:09.134Z,18.06
2018-09-06T06:57:15.608Z,18.11
2018-09-06T06:58:22.090Z,18.15
2018-09-06T06:59:28.587Z,18.19
2018-09-06T07:00:35.078Z,18.23
2018-09-06T07:01:41.067Z,18.26
2018-09-06T07:02:48.044Z,18.33
2018-09-06T07:03:54.051Z,18.40
2018-09-06T07:05:01.037Z,18.43
2018-09-06T07:06:07.548Z,18.49
2018-09-06T07:07:14.081Z,18.56
2018-09-06T07:08:20.540Z,18.59
2018-09-06T07:09:27.041Z,18.63
2018-09-06T07:10:33.543Z,18.66
2018-09-06T07:11:40.040Z,18.69
2018-09-06T07:12:46.066Z,18.74
2018-09-06T07:13:53.073Z,18.83
2018-09-06T07:14:59.085Z,18.92
2018-09-06T07:16:06.119Z,19.02
2018-09-06T07:17:12.621Z,19.13
2018-09-06T07:18:19.223Z,19.27
2018-09-06T07:19:25.701Z,19.43
2018-09-06T07:20:31.734Z,19.57
2018-09-06T07:21:38.753Z,19.69
2018-09-06T07:22:45.294Z,19.75
2018-09-06T07:23:51.847Z,19.83
2018-09-06T07:24:58.401Z,19.95
2018-09-06T07:26:04.953Z,20.08
2018-09-06T07:27:11.504Z,20.25
2018-09-06T07:28:18.071Z,20.47
2018-09-06T07:29:24.643Z,20.73
2018-09-06T07:30:31.287Z,20.97
2018-09-06T07:31:37.791Z,21.15
2018-09-06T07:32:44.371Z,21.32
2018-09-06T07:33:50.960Z,21.44
2018-09-06T07:34:57.554Z,21.52
2018-09-06T07:36:04.143Z,21.67
2018-09-06T07:37:10.754Z,21.79
2018-09-06T07:38:17.964Z,21.87
2018-09-06T07:39:23.960Z,21.94
2018-09-06T07:40:30.560Z,21.97
2018-09-06T07:41:37.278Z,21.99
2018-09-06T07:42:43.295Z,21.94
2018-09-06T07:43:50.374Z,21.80
2018-09-06T07:44:56.482Z,21.64
2018-09-06T07:46:03.584Z,21.50
2018-09-06T07:47:10.196Z,21.37
2018-09-06T07:48:16.790Z,21.20
2018-09-06T07:49:23.382Z,21.10
2018-09-06T07:50:29.515Z,21.01
2018-09-06T07:51:36.122Z,20.96
2018-09-06T07:52:42.689Z,20.89
2018-09-06T07:53:49.787Z,20.91
2018-09-06T07:54:56.371Z,20.93
2018-09-06T07:56:02.991Z,20.97
2018-09-06T07:57:09.082Z,21.04
2018-09-06T07:58:15.877Z,21.09
2018-09-06T07:59:22.791Z,21.16
2018-09-06T08:00:29.393Z,21.23
2018-09-06T08:01:36.029Z,21.29
2018-09-06T08:02:42.633Z,21.36
2018-09-06T08:03:49.261Z,21.37
2018-09-06T08:04:55.875Z,21.31
2018-09-06T08:06:02.484Z,21.32
2018-09-06T08:07:09.125Z,21.35
2018-09-06T08:08:15.749Z,21.40
2018-09-06T08:09:22.379Z,21.44
2018-09-06T08:10:29.034Z,21.48
2018-09-06T08:11:35.685Z,21.56
2018-09-06T08:12:42.312Z,21.64
2018-09-06T08:13:48.467Z,21.71
2018-09-06T08:14:55.619Z,21.82
2018-09-06T08:16:02.273Z,21.93
2018-09-06T08:17:08.440Z,21.98
2018-09-06T08:18:15.599Z,22.04
2018-09-06T08:19:22.274Z,22.10
2018-09-06T08:20:28.933Z,22.14
2018-09-06T08:21:35.609Z,22.25
2018-09-06T08:22:42.289Z,22.38
2018-09-06T08:23:48.975Z,22.59
2018-09-06T08:24:55.658Z,22.82
2018-09-06T08:26:02.362Z,22.94
2018-09-06T08:27:09.074Z,23.05
2018-09-06T08:28:15.791Z,23.15
2018-09-06T08:29:22.498Z,23.26
2018-09-06T08:30:29.293Z,23.36
2018-09-06T08:31:35.954Z,23.41
2018-09-06T08:32:42.681Z,23.39
2018-09-06T08:33:49.423Z,23.41
2018-09-06T08:34:56.159Z,23.41
2018-09-06T08:36:02.911Z,23.37
2018-09-06T08:37:09.685Z,23.42
2018-09-06T08:38:16.404Z,23.51
2018-09-06T08:39:23.152Z,23.51
2018-09-06T08:40:29.898Z,23.60
2018-09-06T08:41:36.670Z,23.66
2018-09-06T08:42:42.923Z,23.75
2018-09-06T08:43:50.170Z,23.70
2018-09-06T08:44:56.932Z,23.77
2018-09-06T08:46:03.728Z,23.91
2018-09-06T08:47:10.459Z,24.10
2018-09-06T08:48:16.747Z,24.25
2018-09-06T08:49:24.024Z,24.41
2018-09-06T08:50:30.318Z,24.53
2018-09-06T08:51:37.628Z,24.66
2018-09-06T08:52:44.431Z,24.77
2018-09-06T08:53:51.266Z,24.96
2018-09-06T08:54:57.565Z,25.16
2018-09-06T08:56:04.886Z,25.30
2018-09-06T08:57:11.719Z,25.31
2018-09-06T08:58:18.540Z,25.25
2018-09-06T08:59:25.368Z,25.20
2018-09-06T09:00:32.190Z,25.07
2018-09-06T09:01:38.537Z,24.90
2018-09-06T09:02:45.508Z,24.91
2018-09-06T09:03:52.709Z,24.92
2018-09-06T09:04:59.542Z,25.01
2018-09-06T09:06:06.522Z,25.05
2018-09-06T09:07:13.274Z,25.08
2018-09-06T09:08:20.083Z,25.15
2018-09-06T09:09:26.438Z,25.12
2018-09-06T09:10:33.291Z,25.12
2018-09-06T09:11:40.653Z,25.24
2018-09-06T09:12:47.501Z,25.40
2018-09-06T09:13:54.371Z,25.60
2018-09-06T09:15:01.275Z,25.87
2018-09-06T09:16:08.707Z,25.95
2018-09-06T09:17:15.013Z,26.06
2018-09-06T09:18:21.931Z,26.10
2018-09-06T09:19:28.748Z,26.06
2018-09-06T09:20:35.637Z,26.06
2018-09-06T09:21:42.603Z,26.03
2018-09-06T09:22:49.413Z,25.80
2018-09-06T09:23:56.278Z,25.67
2018-09-06T09:25:03.283Z,25.72
2018-09-06T09:26:10.051Z,25.87
2018-09-06T09:27:16.959Z,26.02
2018-09-06T09:28:23.854Z,26.18
2018-09-06T09:29:30.758Z,26.38
2018-09-06T09:30:37.686Z,26.49
2018-09-06T09:31:44.583Z,26.59
2018-09-06T09:32:51.487Z,26.62
2018-09-06T09:33:57.909Z,26.60
2018-09-06T09:35:05.330Z,26.67
2018-09-06T09:36:12.247Z,26.77
2018-09-06T09:37:19.275Z,26.80
2018-09-06T09:38:26.089Z,26.95
2018-09-06T09:39:33.009Z,27.05
2018-09-06T09:40:39.420Z,27.17
2018-09-06T09:41:46.853Z,27.22
2018-09-06T09:42:53.258Z,27.14
2018-09-06T09:44:00.656Z,27.03
2018-09-06T09:45:07.083Z,26.97
2018-09-06T09:49:35.362Z,27.13
2018-09-06T09:52:55.951Z,27.09
2018-09-06T09:54:03.363Z,27.22
2018-09-06T09:55:09.775Z,27.45
2018-09-06T09:56:16.700Z,27.47
2018-09-06T09:57:23.613Z,27.52
2018-09-06T09:58:30.526Z,27.54
2018-09-06T09:59:37.414Z,27.44
2018-09-06T10:00:44.333Z,27.25
2018-09-06T10:01:51.309Z,27.06
2018-09-06T10:02:57.640Z,26.86
2018-09-06T10:04:05.025Z,26.71
2018-09-06T10:05:11.912Z,26.48
2018-09-06T10:06:18.803Z,26.27
2018-09-06T10:07:25.657Z,25.94
2018-09-06T10:08:32.540Z,25.61
2018-09-06T10:09:39.364Z,25.38
2018-09-06T10:10:46.230Z,25.19
2018-09-06T10:11:53.056Z,24.90
2018-09-06T10:12:59.884Z,24.26
2018-09-06T10:14:06.709Z,23.67
2018-09-06T10:15:13.518Z,23.19
2018-09-06T10:16:20.307Z,22.76
2018-09-06T10:17:27.117Z,22.48
2018-09-06T10:18:33.894Z,22.18
2018-09-06T10:19:40.655Z,22.02
2018-09-06T10:20:47.389Z,21.83
2018-09-06T10:21:55.138Z,21.68
2018-09-06T10:23:00.900Z,21.50
2018-09-06T10:24:07.621Z,21.39
2018-09-06T10:25:14.328Z,21.27
2018-09-06T10:26:21.048Z,21.04
2018-09-06T10:27:27.758Z,20.91
2018-09-06T10:28:34.442Z,20.85
2018-09-06T10:29:41.160Z,20.91
2018-09-06T10:30:47.844Z,20.99
2018-09-06T10:31:54.528Z,21.05
2018-09-06T10:33:01.282Z,21.07
2018-09-06T10:34:07.927Z,21.12
2018-09-06T10:35:14.664Z,21.26
2018-09-06T10:36:21.320Z,21.44
2018-09-06T10:37:28.014Z,21.48
2018-09-06T10:38:34.709Z,21.54
2018-09-06T10:39:41.438Z,21.63
2018-09-06T10:40:49.147Z,21.72
2018-09-06T10:41:54.947Z,21.84
2018-09-06T10:43:01.559Z,21.96
2018-09-06T10:44:08.274Z,22.06
2018-09-06T10:45:14.990Z,22.19
2018-09-06T10:46:21.727Z,22.44
2018-09-06T10:47:28.473Z,22.79
2018-09-06T10:48:35.329Z,23.07
2018-09-06T10:49:42.934Z,23.28
2018-09-06T10:50:48.691Z,23.44
2018-09-06T10:51:56.065Z,23.67
2018-09-06T10:53:02.220Z,23.90
2018-09-06T10:54:09.996Z,24.07
2018-09-06T10:55:15.771Z,24.16
2018-09-06T10:56:22.559Z,24.26
2018-09-06T10:57:29.365Z,24.41
2018-09-06T10:58:37.273Z,24.68
2018-09-06T10:59:42.991Z,24.86
2018-09-06T11:00:49.899Z,24.86
2018-09-06T11:01:56.603Z,24.84
2018-09-06T11:03:03.424Z,24.80
2018-09-06T11:04:10.238Z,24.71
2018-09-06T11:05:17.068Z,24.64
2018-09-06T11:06:23.894Z,24.70
2018-09-06T11:07:30.240Z,24.85
2018-09-06T11:08:37.573Z,25.01
2018-09-06T11:09:44.415Z,25.10
2018-09-06T11:10:51.291Z,25.19
2018-09-06T11:11:58.127Z,25.15
2018-09-06T11:13:04.984Z,25.08
2018-09-06T11:14:11.843Z,25.19
2018-09-06T11:15:18.717Z,25.35
2018-09-06T11:16:25.602Z,25.43
2018-09-06T11:17:32.487Z,25.49
2018-09-06T11:18:39.377Z,25.54
2018-09-06T11:19:46.279Z,25.67
2018-09-06T11:20:53.276Z,25.77
2018-09-06T11:22:00.310Z,25.94
2018-09-06T11:23:07.009Z,26.20
2018-09-06T11:24:13.911Z,26.34
2018-09-06T11:25:20.821Z,26.39
2018-09-06T11:26:28.722Z,26.32
2018-09-06T11:27:34.701Z,26.30
2018-09-06T11:28:41.537Z,26.30
2018-09-06T11:29:48.425Z,26.10
2018-09-06T11:30:55.318Z,25.97
2018-09-06T11:32:02.189Z,25.89
2018-09-06T11:33:09.077Z,25.68
2018-09-06T11:34:15.935Z,25.38
2018-09-06T11:35:22.782Z,25.16
2018-09-06T11:36:29.632Z,25.02
2018-09-06T11:37:36.468Z,24.93
2018-09-06T11:38:43.298Z,24.85
2018-09-06T11:39:50.138Z,24.79
2018-09-06T11:40:56.972Z,24.66
2018-09-06T11:42:03.775Z,24.61
2018-09-06T11:43:10.591Z,24.60
2018-09-06T11:44:17.409Z,24.60
2018-09-06T11:45:24.221Z,24.53
2018-09-06T11:46:31.043Z,24.60
2018-09-06T11:47:37.852Z,24.74
2018-09-06T11:48:44.675Z,24.85
2018-09-06T11:49:51.498Z,24.96
2018-09-06T11:50:58.340Z,25.01
2018-09-06T11:52:05.123Z,25.07
2018-09-06T11:53:11.943Z,25.06
2018-09-06T11:54:18.757Z,25.10
2018-09-06T11:55:25.573Z,25.12
2018-09-06T11:56:32.368Z,25.10
2018-09-06T11:57:39.285Z,25.11
2018-09-06T11:58:46.019Z,25.14
2018-09-06T11:59:52.824Z,25.13
2018-09-06T12:00:59.626Z,25.10
2018-09-06T12:02:06.468Z,25.11
2018-09-06T12:03:14.267Z,25.11
2018-09-06T12:04:21.046Z,25.13
2018-09-06T12:05:26.869Z,25.09
2018-09-06T12:06:33.664Z,25.10
2018-09-06T12:07:40.482Z,25.04
2018-09-06T12:08:47.282Z,24.95
2018-09-06T12:09:54.087Z,24.93
2018-09-06T12:11:00.900Z,24.86
2018-09-06T12:12:07.712Z,24.79
2018-09-06T12:13:15.519Z,24.73
2018-09-06T12:14:21.327Z,24.69
2018-09-06T12:15:28.122Z,24.64
2018-09-06T12:16:34.931Z,24.57
2018-09-06T12:17:41.748Z,24.51
2018-09-06T12:18:48.548Z,24.48
2018-09-06T12:19:55.343Z,24.37
2018-09-06T12:21:02.148Z,24.36
2018-09-06T12:22:08.953Z,24.36
2018-09-06T12:23:15.758Z,24.46
2018-09-06T12:24:22.557Z,24.49
2018-09-06T12:25:29.355Z,24.52
2018-09-06T12:26:36.159Z,24.60
2018-09-06T12:27:42.948Z,24.72
2018-09-06T12:28:49.774Z,24.62
2018-09-06T12:29:56.576Z,24.55
2018-09-06T12:31:03.373Z,24.48
2018-09-06T12:32:10.162Z,24.53
2018-09-06T12:33:17.119Z,24.55
2018-09-06T12:34:23.764Z,24.56
2018-09-06T12:35:30.573Z,24.62
2018-09-06T12:36:37.359Z,24.73
2018-09-06T12:37:44.178Z,24.91
2018-09-06T12:38:50.981Z,25.06
2018-09-06T12:39:57.770Z,25.08
2018-09-06T12:41:04.602Z,25.09
2018-09-06T12:42:11.387Z,24.99
2018-09-06T12:43:18.219Z,24.98
2018-09-06T12:44:25.007Z,25.02
2018-09-06T12:45:31.821Z,24.97
2018-09-06T12:46:38.618Z,24.94
2018-09-06T12:47:45.423Z,24.93
2018-09-06T12:48:52.230Z,24.91
2018-09-06T12:49:59.037Z,24.88
2018-09-06T12:51:05.847Z,24.84
2018-09-06T12:53:19.502Z,24.81
2018-09-06T12:54:26.298Z,24.85
2018-09-06T12:55:33.129Z,24.83
2018-09-06T12:56:41.031Z,24.84
2018-09-06T12:57:47.767Z,24.81
2018-09-06T12:58:53.607Z,24.81
2018-09-06T13:00:01.419Z,24.87
2018-09-06T13:01:07.288Z,24.93
2018-09-06T13:02:14.096Z,25.06
2018-09-06T13:03:20.940Z,25.22
2018-09-06T13:04:27.801Z,25.34
2018-09-06T13:05:34.654Z,25.41
2018-09-06T13:06:41.520Z,25.51
2018-09-06T13:07:48.371Z,25.61
2018-09-06T13:08:55.279Z,25.72
2018-09-06T13:10:02.108Z,25.77
2018-09-06T13:11:08.986Z,25.81
2018-09-06T13:12:15.878Z,25.81
2018-09-06T13:13:22.770Z,25.80
2018-09-06T13:14:29.684Z,25.75
2018-09-06T13:15:36.578Z,25.81
2018-09-06T13:16:43.480Z,25.81
2018-09-06T13:17:50.382Z,25.87
2018-09-06T13:18:57.317Z,25.93
2018-09-06T13:20:04.224Z,25.95
2018-09-06T13:21:11.126Z,25.97
2018-09-06T13:22:18.039Z,25.96
2018-09-06T13:23:24.962Z,26.00
2018-09-06T13:24:31.875Z,25.99
2018-09-06T13:25:38.770Z,25.92
2018-09-06T13:26:45.694Z,25.88
2018-09-06T13:27:52.568Z,25.84
2018-09-06T13:28:59.466Z,25.76
2018-09-06T13:30:06.358Z,25.73
2018-09-06T13:31:12.747Z,25.69
2018-09-06T13:32:20.124Z,25.58
2018-09-06T13:33:27.002Z,25.52
2018-09-06T13:34:33.893Z,25.52
2018-09-06T13:35:40.829Z,25.48
2018-09-06T13:36:47.628Z,25.46
2018-09-06T13:37:54.478Z,25.39
2018-09-06T13:39:01.363Z,25.36
2018-09-06T13:40:09.278Z,25.34
2018-09-06T13:41:15.080Z,25.32
2018-09-06T13:42:21.923Z,25.34
2018-09-06T13:43:29.777Z,25.35
2018-09-06T13:44:36.625Z,25.27
2018-09-06T13:45:42.446Z,25.22
2018-09-06T13:46:49.289Z,25.18
2018-09-06T13:47:56.126Z,25.05
2018-09-06T13:49:02.972Z,24.87
2018-09-06T13:50:09.801Z,24.84
2018-09-06T13:51:16.628Z,24.89
2018-09-06T13:52:23.460Z,24.91
2018-09-06T13:53:31.286Z,24.93
2018-09-06T13:54:37.117Z,24.95
2018-09-06T13:55:43.930Z,24.91
2018-09-06T13:56:50.764Z,24.83
2018-09-06T13:57:58.557Z,24.76
2018-09-06T13:59:04.389Z,24.66
2018-09-06T14:00:11.273Z,24.52
2018-09-06T14:01:18.011Z,24.44
2018-09-06T14:02:24.835Z,24.30
2018-09-06T14:03:32.625Z,24.16
2018-09-06T14:04:38.445Z,24.08
2018-09-06T14:05:45.312Z,24.09
2018-09-06T14:06:52.327Z,24.09
2018-09-06T14:07:59.802Z,24.11
2018-09-06T14:09:05.616Z,24.14
2018-09-06T14:10:13.407Z,24.20
2018-09-06T14:11:19.272Z,24.25
2018-09-06T14:12:26.008Z,24.29
2018-09-06T14:13:32.815Z,24.31
2018-09-06T14:14:39.608Z,24.28
2018-09-06T14:15:47.399Z,24.26
2018-09-06T14:16:53.334Z,24.32
2018-09-06T14:18:00.046Z,24.48
2018-09-06T14:19:06.852Z,24.62
2018-09-06T14:20:13.681Z,24.61
2018-09-06T14:21:20.507Z,24.70
2018-09-06T14:22:27.327Z,24.79
2018-09-06T14:23:34.139Z,24.88